Time;durP1;ratioP1;P1;durP2;ratioP2;P2;SDS_P1;SDS_P2;PMS_P1;PMS_P2;Temp;Humidity;BMP_temperature;BMP_pressure;BME280_temperature;BME280_humidity;BME280_pressure;Samples;Min_cycle;Max_cycle;Signal;HPM_P1;HPM_P2
2024/03/04 00:00:36;;;;;;;21.33;10.18;;;8.10;99.90;;;;;;5017107;28;20079;-68
2024/03/04 00:03:02;;;;;;;23.90;11.07;;;8.10;99.90;;;;;;5017067;28;20046;-68
2024/03/04 00:05:28;;;;;;;24.58;11.50;;;8.10;99.90;;;;;;5020690;28;20037;-68
2024/03/04 00:07:54;;;;;;;24.77;11.50;;;8.10;99.90;;;;;;5011402;28;20153;-68
2024/03/04 00:10:20;;;;;;;24.40;10.82;;;8.10;99.90;;;;;;5020337;28;20117;-68
2024/03/04 00:12:46;;;;;;;25.70;11.70;;;8.10;99.90;;;;;;5017744;28;20045;-68
2024/03/04 00:15:13;;;;;;;23.25;9.98;;;8.10;99.90;;;;;;5020034;28;20432;-69
2024/03/04 00:17:40;;;;;;;23.97;11.70;;;8.10;99.90;;;;;;5014172;28;20414;-69
2024/03/04 00:20:09;;;;;;;22.25;11.18;;;8.10;99.90;;;;;;5015776;28;20557;-69
2024/03/04 00:22:35;;;;;;;23.00;11.10;;;8.00;99.90;;;;;;5011694;28;20057;-69
2024/03/04 00:25:01;;;;;;;23.55;11.10;;;8.00;99.90;;;;;;5014998;28;20030;-69
2024/03/04 00:27:26;;;;;;;23.27;10.68;;;8.00;99.90;;;;;;5016389;28;20036;-69
2024/03/04 00:29:52;;;;;;;24.40;11.35;;;8.00;99.90;;;;;;5014921;28;20040;-69
2024/03/04 00:32:18;;;;;;;22.42;11.63;;;8.00;99.90;;;;;;5015775;28;20061;-69
2024/03/04 00:34:43;;;;;;;28.55;12.70;;;8.00;99.90;;;;;;5021013;28;20048;-69
2024/03/04 00:37:10;;;;;;;22.25;11.48;;;8.00;99.90;;;;;;5013372;28;20029;-69
2024/03/04 00:39:41;;;;;;;24.00;11.70;;;8.00;99.90;;;;;;5012015;28;20117;-69
2024/03/04 00:42:07;;;;;;;29.48;12.10;;;8.00;99.90;;;;;;5015710;28;20061;-69
2024/03/04 00:44:33;;;;;;;28.38;12.73;;;8.00;99.90;;;;;;5021709;28;20056;-68
2024/03/04 00:46:58;;;;;;;25.05;11.88;;;8.00;99.90;;;;;;5023844;28;20026;-68
2024/03/04 00:49:24;;;;;;;25.17;12.43;;;7.90;99.90;;;;;;5017577;28;20413;-68
2024/03/04 00:51:50;;;;;;;24.80;12.93;;;7.90;99.90;;;;;;5012606;28;20034;-68
2024/03/04 00:54:15;;;;;;;26.40;12.60;;;7.90;99.90;;;;;;5012556;28;20151;-68
2024/03/04 00:56:41;;;;;;;28.83;13.30;;;7.90;99.90;;;;;;5017043;28;20044;-68
2024/03/04 00:59:07;;;;;;;26.70;12.95;;;7.90;99.90;;;;;;5018402;28;20063;-69
2024/03/04 01:01:33;;;;;;;28.40;11.93;;;7.90;99.90;;;;;;5017295;28;20080;-68
2024/03/04 01:03:59;;;;;;;32.42;13.02;;;7.90;99.90;;;;;;5020193;28;20034;-68
2024/03/04 01:06:27;;;;;;;24.20;12.48;;;7.90;99.90;;;;;;5014876;28;20147;-68
2024/03/04 01:08:53;;;;;;;29.35;12.95;;;7.90;99.90;;;;;;5014860;28;20044;-68
2024/03/04 01:11:19;;;;;;;27.10;13.00;;;7.90;99.90;;;;;;5019440;28;20025;-68
2024/03/04 01:13:45;;;;;;;25.92;12.05;;;7.90;99.90;;;;;;5020125;28;20037;-68
2024/03/04 01:16:11;;;;;;;25.13;11.88;;;7.80;99.90;;;;;;5019790;28;20026;-68
2024/03/04 01:18:37;;;;;;;24.35;11.38;;;7.80;99.90;;;;;;5021178;28;20030;-68
2024/03/04 01:21:03;;;;;;;29.25;11.52;;;7.80;99.90;;;;;;5008419;28;20040;-68
2024/03/04 01:23:29;;;;;;;28.25;12.35;;;7.80;99.90;;;;;;5009924;28;20033;-68
2024/03/04 01:25:55;;;;;;;24.30;12.23;;;7.80;99.90;;;;;;5012891;28;20030;-68
2024/03/04 01:28:23;;;;;;;23.23;11.95;;;7.70;99.90;;;;;;5020541;28;20099;-69
2024/03/04 01:30:55;;;;;;;29.05;13.18;;;7.70;99.90;;;;;;5016077;28;20045;-68
2024/03/04 01:33:20;;;;;;;27.55;13.63;;;7.70;99.90;;;;;;5019648;28;20117;-68
2024/03/04 01:35:46;;;;;;;30.08;12.25;;;7.70;99.90;;;;;;5017026;28;20120;-68
2024/03/04 01:38:12;;;;;;;27.60;13.05;;;7.70;99.90;;;;;;5017940;28;20038;-68
2024/03/04 01:40:37;;;;;;;27.02;12.38;;;7.70;99.90;;;;;;5012545;28;20461;-68
2024/03/04 01:43:03;;;;;;;28.45;13.15;;;7.70;99.90;;;;;;5013425;28;20538;-68
2024/03/04 01:45:29;;;;;;;26.95;12.70;;;7.70;99.90;;;;;;5016305;28;20026;-68
2024/03/04 01:48:01;;;;;;;26.58;12.57;;;7.70;99.90;;;;;;5012806;28;20061;-68
2024/03/04 01:50:29;;;;;;;25.42;11.98;;;7.60;99.90;;;;;;5012648;28;20028;-68
2024/03/04 01:52:57;;;;;;;25.35;11.98;;;7.60;99.90;;;;;;5013156;28;20030;-68
2024/03/04 01:55:23;;;;;;;26.77;12.52;;;7.60;99.90;;;;;;5017564;28;20495;-68
2024/03/04 01:57:50;;;;;;;25.52;12.40;;;7.50;99.90;;;;;;5026741;28;20034;-68
2024/03/04 02:00:19;;;;;;;23.48;11.43;;;7.50;99.90;;;;;;5010700;28;20677;-68
2024/03/04 02:02:45;;;;;;;25.90;11.98;;;7.50;99.90;;;;;;5014446;28;20038;-69
2024/03/04 02:05:11;;;;;;;29.98;13.23;;;7.40;99.90;;;;;;5014812;28;20037;-69
2024/03/04 02:07:38;;;;;;;23.70;11.77;;;7.40;99.90;;;;;;5017351;28;20129;-69
2024/03/04 02:10:05;;;;;;;23.23;11.82;;;7.40;99.90;;;;;;5016122;28;20046;-69
2024/03/04 02:12:32;;;;;;;24.63;11.80;;;7.30;99.90;;;;;;5021442;28;20029;-69
2024/03/04 02:14:59;;;;;;;29.15;12.10;;;7.30;99.90;;;;;;5018983;28;20503;-69
2024/03/04 02:17:27;;;;;;;24.45;12.02;;;7.30;99.90;;;;;;5019926;28;20040;-68
2024/03/04 02:20:15;;;;;;;23.90;12.00;;;7.30;99.90;;;;;;5021238;28;20123;-69
2024/03/04 02:22:42;;;;;;;22.52;11.63;;;7.30;99.90;;;;;;5012667;28;20518;-69
2024/03/04 02:25:11;;;;;;;28.92;13.35;;;7.20;99.90;;;;;;5016004;28;20608;-69
2024/03/04 02:27:37;;;;;;;27.70;12.27;;;7.20;99.90;;;;;;5016775;28;20024;-69
2024/03/04 02:30:04;;;;;;;27.60;12.68;;;7.10;99.90;;;;;;5012558;28;20038;-69
2024/03/04 02:32:31;;;;;;;27.50;12.75;;;7.10;99.90;;;;;;5016297;28;20057;-69
2024/03/04 02:34:58;;;;;;;27.17;13.23;;;7.10;99.90;;;;;;5012247;28;20050;-69
2024/03/04 02:37:23;;;;;;;29.67;13.63;;;7.00;99.90;;;;;;5015979;28;20049;-69
2024/03/04 02:39:52;;;;;;;26.15;12.55;;;7.00;99.90;;;;;;5011102;28;20041;-69
2024/03/04 02:42:17;;;;;;;27.55;12.63;;;7.00;99.90;;;;;;5019332;28;20037;-69
2024/03/04 02:44:43;;;;;;;27.90;12.95;;;6.90;99.90;;;;;;5018952;28;20042;-69
2024/03/04 02:47:08;;;;;;;29.02;13.10;;;6.90;99.90;;;;;;5015218;28;20116;-69
2024/03/04 02:49:35;;;;;;;26.77;12.32;;;6.90;99.90;;;;;;5022749;28;20022;-69
2024/03/04 02:52:01;;;;;;;33.17;14.37;;;6.90;99.90;;;;;;5017490;28;20064;-69
2024/03/04 02:54:27;;;;;;;29.42;12.57;;;6.80;99.90;;;;;;5021580;28;20033;-69
2024/03/04 02:56:52;;;;;;;29.83;12.93;;;6.80;99.90;;;;;;5017404;28;20026;-69
2024/03/04 02:59:19;;;;;;;27.65;12.73;;;6.80;99.90;;;;;;5022056;28;20057;-68
2024/03/04 03:01:48;;;;;;;26.63;12.63;;;6.80;99.90;;;;;;5014929;28;20040;-69
2024/03/04 03:04:16;;;;;;;30.95;12.30;;;6.70;99.90;;;;;;5019452;28;20030;-69
2024/03/04 03:06:42;;;;;;;25.08;11.85;;;6.50;99.90;;;;;;5019555;28;20034;-69
2024/03/04 03:09:09;;;;;;;25.40;12.15;;;6.50;99.90;;;;;;5012205;28;20056;-68
2024/03/04 03:11:35;;;;;;;28.00;12.98;;;6.50;99.90;;;;;;5020188;28;20155;-68
2024/03/04 03:14:01;;;;;;;26.73;12.00;;;6.50;99.90;;;;;;5013072;28;20037;-68
2024/03/04 03:16:27;;;;;;;27.33;11.93;;;6.50;99.90;;;;;;5024319;28;20037;-69
2024/03/04 03:18:56;;;;;;;29.98;12.32;;;6.50;99.90;;;;;;5024034;28;20033;-68
2024/03/04 03:21:22;;;;;;;26.95;12.70;;;6.50;99.90;;;;;;5016265;28;20041;-69
2024/03/04 03:23:48;;;;;;;23.05;12.07;;;6.50;99.90;;;;;;5015864;28;20042;-69
2024/03/04 03:26:14;;;;;;;25.58;13.18;;;6.50;99.90;;;;;;5013968;28;20612;-68
2024/03/04 03:28:43;;;;;;;28.70;13.48;;;6.40;99.90;;;;;;5023108;28;20044;-69
2024/03/04 03:31:09;;;;;;;27.80;12.93;;;6.40;99.90;;;;;;5017486;28;20037;-69
2024/03/04 03:33:36;;;;;;;26.92;12.82;;;6.40;99.90;;;;;;5013823;28;20022;-69
2024/03/04 03:36:04;;;;;;;29.42;12.55;;;6.40;99.90;;;;;;5011172;28;20068;-68
2024/03/04 03:38:31;;;;;;;32.13;13.55;;;6.40;99.90;;;;;;5011271;28;20034;-69
2024/03/04 03:40:57;;;;;;;26.08;12.82;;;6.30;99.90;;;;;;5017444;28;20026;-69
2024/03/04 03:43:24;;;;;;;31.95;13.70;;;6.30;99.90;;;;;;5017652;28;20038;-69
2024/03/04 03:45:51;;;;;;;28.25;13.25;;;6.30;99.90;;;;;;5018329;28;20033;-69
2024/03/04 03:48:20;;;;;;;26.37;14.03;;;6.30;99.90;;;;;;5021935;28;20053;-69
2024/03/04 03:50:46;;;;;;;30.00;14.27;;;6.20;99.90;;;;;;5009583;28;20569;-69
2024/03/04 03:53:12;;;;;;;30.40;14.13;;;6.20;99.90;;;;;;5019478;28;20088;-69
2024/03/04 03:55:38;;;;;;;31.75;14.85;;;6.30;99.90;;;;;;5013599;28;20030;-69
2024/03/04 03:58:04;;;;;;;33.72;14.68;;;6.20;99.90;;;;;;5019240;28;20032;-69
2024/03/04 04:00:30;;;;;;;31.60;14.63;;;6.20;99.90;;;;;;5014630;28;20108;-69
2024/03/04 04:02:56;;;;;;;33.45;14.18;;;6.20;99.90;;;;;;5013409;28;20030;-69
2024/03/04 04:05:22;;;;;;;31.92;14.23;;;6.10;99.90;;;;;;5013791;28;20057;-69
2024/03/04 04:07:47;;;;;;;28.20;13.75;;;6.10;99.90;;;;;;5027402;28;20487;-69
2024/03/04 04:10:16;;;;;;;31.83;14.40;;;6.10;99.90;;;;;;5018359;28;20039;-69
2024/03/04 04:12:42;;;;;;;32.95;14.90;;;6.10;99.90;;;;;;5017943;28;20033;-69
2024/03/04 04:15:08;;;;;;;34.88;14.10;;;6.10;99.90;;;;;;5016481;28;20036;-69
2024/03/04 04:17:34;;;;;;;29.38;13.30;;;6.10;99.90;;;;;;5024143;28;20022;-69
2024/03/04 04:20:00;;;;;;;35.80;14.35;;;6.00;99.90;;;;;;5019771;28;20389;-69
2024/03/04 04:22:27;;;;;;;30.60;14.23;;;6.00;99.90;;;;;;5011818;28;20142;-69
2024/03/04 04:24:53;;;;;;;28.42;14.27;;;6.00;99.90;;;;;;5016609;28;20392;-69
2024/03/04 04:27:19;;;;;;;32.85;14.93;;;6.00;99.90;;;;;;5018466;28;20021;-70
2024/03/04 04:29:44;;;;;;;33.75;14.40;;;5.90;99.90;;;;;;5018462;28;20052;-69
2024/03/04 04:32:13;;;;;;;41.50;15.88;;;5.90;99.90;;;;;;5019267;28;20077;-70
2024/03/04 04:34:44;;;;;;;32.20;14.52;;;5.90;99.90;;;;;;5015664;28;20041;-70
2024/03/04 04:37:10;;;;;;;31.60;15.07;;;5.90;99.90;;;;;;5021649;28;20034;-70
2024/03/04 04:39:39;;;;;;;28.38;13.70;;;5.80;99.90;;;;;;5016803;28;20060;-70
2024/03/04 04:42:06;;;;;;;28.92;13.50;;;5.80;99.90;;;;;;5012577;28;20026;-70
2024/03/04 04:44:32;;;;;;;37.42;14.68;;;5.80;99.90;;;;;;5022686;28;20030;-70
2024/03/04 04:46:58;;;;;;;27.33;13.55;;;5.80;99.90;;;;;;5016328;28;20033;-70
2024/03/04 04:49:24;;;;;;;32.45;15.27;;;5.90;99.90;;;;;;5021504;28;20510;-70
2024/03/04 04:51:49;;;;;;;35.35;14.73;;;5.80;99.90;;;;;;5018319;28;20040;-69
2024/03/04 04:54:15;;;;;;;36.33;14.23;;;5.80;99.90;;;;;;5017893;28;20434;-69
2024/03/04 04:56:41;;;;;;;34.25;14.73;;;5.80;99.90;;;;;;5018324;28;20037;-70
2024/03/04 04:59:07;;;;;;;37.03;15.13;;;5.80;99.90;;;;;;5020485;28;20053;-70
2024/03/04 05:01:33;;;;;;;31.88;15.50;;;5.90;99.90;;;;;;5016452;28;20038;-69
2024/03/04 05:03:59;;;;;;;31.77;15.65;;;5.90;99.90;;;;;;5012025;28;20167;-70
2024/03/04 05:06:24;;;;;;;40.28;16.73;;;5.90;99.90;;;;;;5010404;28;20083;-69
2024/03/04 05:08:50;;;;;;;41.38;16.60;;;5.90;99.90;;;;;;5020298;28;20037;-69
2024/03/04 05:11:16;;;;;;;48.60;18.92;;;5.90;99.90;;;;;;5017018;28;20101;-69
2024/03/04 05:13:42;;;;;;;50.63;19.30;;;6.00;99.90;;;;;;5020318;28;20742;-70
2024/03/04 05:16:08;;;;;;;55.72;21.02;;;6.00;99.90;;;;;;5014210;28;20046;-69
2024/03/04 05:18:35;;;;;;;53.45;21.80;;;6.00;99.90;;;;;;5015165;28;20071;-70
2024/03/04 05:21:03;;;;;;;54.20;20.77;;;6.00;99.90;;;;;;5011538;28;20026;-69
2024/03/04 05:23:29;;;;;;;60.72;21.17;;;6.10;99.90;;;;;;5013253;28;20045;-70
2024/03/04 05:25:55;;;;;;;52.03;20.25;;;6.10;99.90;;;;;;5016740;28;20046;-69
2024/03/04 05:28:21;;;;;;;54.00;21.48;;;6.10;99.90;;;;;;5019877;28;20046;-70
2024/03/04 05:30:46;;;;;;;51.08;19.83;;;6.20;99.90;;;;;;5019747;28;20395;-69
2024/03/04 05:33:12;;;;;;;51.28;20.17;;;6.20;99.90;;;;;;5015880;28;20030;-70
2024/03/04 05:35:37;;;;;;;48.08;18.40;;;6.20;99.90;;;;;;5011886;28;20030;-69
2024/03/04 05:38:03;;;;;;;47.20;18.67;;;6.20;99.90;;;;;;5016987;28;20044;-69
2024/03/04 05:40:29;;;;;;;57.25;19.80;;;6.10;99.90;;;;;;5020398;28;20613;-69
2024/03/04 05:42:55;;;;;;;49.28;19.98;;;6.10;99.90;;;;;;5022887;28;20040;-69
2024/03/04 05:45:20;;;;;;;48.38;18.98;;;6.10;99.90;;;;;;5019093;28;20030;-69
2024/03/04 05:47:46;;;;;;;52.30;19.63;;;6.10;99.90;;;;;;5016853;28;20034;-70
2024/03/04 05:50:14;;;;;;;54.00;18.38;;;6.20;99.90;;;;;;5013716;28;20406;-70
2024/03/04 05:52:41;;;;;;;38.53;18.73;;;6.20;99.90;;;;;;5017824;28;20041;-67
2024/03/04 05:55:07;;;;;;;47.58;18.55;;;6.20;99.90;;;;;;5019467;28;20064;-70
2024/03/04 05:57:34;;;;;;;47.65;18.23;;;6.20;99.90;;;;;;5024725;28;20808;-70
2024/03/04 06:00:03;;;;;;;43.97;18.33;;;6.20;99.90;;;;;;5017675;28;20403;-69
2024/03/04 06:02:29;;;;;;;40.95;16.88;;;6.20;99.90;;;;;;5013242;28;20073;-70
2024/03/04 06:04:55;;;;;;;50.70;17.92;;;6.30;99.90;;;;;;5018308;28;20064;-70
2024/03/04 06:07:21;;;;;;;38.17;16.38;;;6.20;99.90;;;;;;5013754;28;20037;-70
2024/03/04 06:09:48;;;;;;;47.85;18.60;;;6.10;99.90;;;;;;5013533;28;20057;-71
2024/03/04 06:12:14;;;;;;;38.00;17.10;;;6.20;99.90;;;;;;5015737;28;20115;-71
2024/03/04 06:14:39;;;;;;;36.35;16.90;;;6.10;99.90;;;;;;5016067;28;20038;-69
2024/03/04 06:17:09;;;;;;;40.60;18.63;;;6.10;99.90;;;;;;5013219;28;20032;-70
2024/03/04 06:19:34;;;;;;;40.92;16.50;;;6.20;99.90;;;;;;5020273;28;20033;-70
2024/03/04 06:22:00;;;;;;;40.13;17.40;;;6.20;99.90;;;;;;5016723;28;20028;-69
2024/03/04 06:24:26;;;;;;;35.30;16.95;;;6.20;99.90;;;;;;5016571;28;20044;-70
2024/03/04 06:26:53;;;;;;;43.55;17.08;;;6.30;99.90;;;;;;5018686;28;20037;-70
2024/03/04 06:29:19;;;;;;;43.03;17.33;;;6.20;99.90;;;;;;5021411;28;20037;-70
2024/03/04 06:31:44;;;;;;;44.20;16.55;;;6.20;99.90;;;;;;5010506;28;20048;-70
2024/03/04 06:34:10;;;;;;;42.47;17.25;;;6.20;99.90;;;;;;5021608;28;20049;-70
2024/03/04 06:36:40;;;;;;;45.33;17.27;;;6.20;99.90;;;;;;5013846;28;20490;-70
2024/03/04 06:39:06;;;;;;;55.97;16.45;;;6.20;99.90;;;;;;5016715;28;20025;-70
2024/03/04 06:41:32;;;;;;;38.83;16.85;;;6.20;99.90;;;;;;5016923;28;20046;-70
2024/03/04 06:43:57;;;;;;;44.15;18.02;;;6.20;99.90;;;;;;5010706;28;20577;-70
2024/03/04 06:46:23;;;;;;;48.08;18.27;;;6.20;99.90;;;;;;5006291;28;20033;-70
2024/03/04 06:48:49;;;;;;;50.85;17.60;;;6.20;99.90;;;;;;5000623;28;20431;-70
2024/03/04 06:51:15;;;;;;;36.45;16.65;;;6.30;99.90;;;;;;5021711;28;20045;-70
2024/03/04 06:53:41;;;;;;;42.95;18.13;;;6.30;99.90;;;;;;5012650;28;20367;-71
2024/03/04 06:56:12;;;;;;;49.13;18.08;;;6.20;99.90;;;;;;5022367;28;20606;-70
2024/03/04 06:58:37;;;;;;;50.83;17.48;;;6.20;99.90;;;;;;5015655;28;20037;-70
2024/03/04 07:01:04;;;;;;;44.83;17.75;;;6.20;99.90;;;;;;5015862;28;20091;-70
2024/03/04 07:03:29;;;;;;;47.05;18.20;;;6.20;99.90;;;;;;5015820;28;20116;-70
2024/03/04 07:05:55;;;;;;;47.45;17.10;;;6.20;99.90;;;;;;5017688;28;20476;-70
2024/03/04 07:08:21;;;;;;;43.28;16.95;;;6.10;99.90;;;;;;5018534;28;20361;-70
2024/03/04 07:10:46;;;;;;;41.60;15.95;;;6.10;99.90;;;;;;5019200;28;20040;-70
2024/03/04 07:13:12;;;;;;;38.03;16.67;;;6.20;99.90;;;;;;5018265;28;20120;-70
2024/03/04 07:15:37;;;;;;;63.22;17.83;;;6.20;99.90;;;;;;5015847;28;20411;-70
2024/03/04 07:18:04;;;;;;;56.45;16.52;;;6.20;99.90;;;;;;5020585;28;20036;-70
2024/03/04 07:20:29;;;;;;;44.40;17.23;;;6.20;99.90;;;;;;5023680;28;20383;-70
2024/03/04 07:22:55;;;;;;;44.03;15.65;;;6.20;99.90;;;;;;5020617;28;20074;-70
2024/03/04 07:25:21;;;;;;;39.25;16.73;;;6.30;99.90;;;;;;5026222;28;20084;-70
2024/03/04 07:27:46;;;;;;;45.30;17.33;;;6.30;99.90;;;;;;5025972;28;20036;-69
2024/03/04 07:30:12;;;;;;;58.50;17.25;;;6.20;99.90;;;;;;5025435;28;20032;-70
2024/03/04 07:32:38;;;;;;;44.58;17.35;;;6.30;99.90;;;;;;5022129;28;20038;-70
2024/03/04 07:35:05;;;;;;;42.58;18.10;;;6.30;99.90;;;;;;5023351;28;20411;-70
2024/03/04 07:37:33;;;;;;;32.05;17.25;;;6.30;99.90;;;;;;5021918;28;20036;-70
2024/03/04 07:39:59;;;;;;;;;;;6.40;99.90;;;;;;5026259;28;20056;-70
2024/03/04 07:42:25;;;;;;;40.13;16.52;;;6.50;99.90;;;;;;5025966;28;20357;-68
2024/03/04 07:44:51;;;;;;;40.03;18.40;;;6.60;99.90;;;;;;5021813;28;20049;-67
2024/03/04 07:47:17;;;;;;;37.70;17.65;;;6.60;99.90;;;;;;5019554;28;20567;-67
2024/03/04 07:49:42;;;;;;;31.17;17.25;;;6.70;99.90;;;;;;5014943;28;20479;-69
2024/03/04 07:52:08;;;;;;;35.10;17.75;;;6.80;99.90;;;;;;5016336;28;20049;-68
2024/03/04 07:54:33;;;;;;;31.30;16.60;;;6.90;99.90;;;;;;5018930;28;20053;-68
2024/03/04 07:56:59;;;;;;;38.92;19.08;;;6.90;99.90;;;;;;5019444;28;20103;-68
2024/03/04 07:59:25;;;;;;;40.92;18.63;;;6.90;99.90;;;;;;5019007;28;20049;-68
2024/03/04 08:01:50;;;;;;;36.83;17.85;;;7.00;99.90;;;;;;5004381;28;20431;-68
2024/03/04 08:04:16;;;;;;;38.25;18.63;;;7.00;99.90;;;;;;5018110;28;20044;-68
2024/03/04 08:06:42;;;;;;;36.83;18.60;;;7.10;99.90;;;;;;5019558;28;20029;-68
2024/03/04 08:09:10;;;;;;;35.50;18.75;;;7.20;99.90;;;;;;5016821;28;20398;-68
2024/03/04 08:11:36;;;;;;;36.03;18.50;;;7.20;99.90;;;;;;5015639;28;20038;-69
2024/03/04 08:14:03;;;;;;;38.83;18.58;;;7.20;99.90;;;;;;5014142;28;20544;-69
2024/03/04 08:16:29;;;;;;;32.53;16.05;;;7.30;99.90;;;;;;5009898;28;20037;-69
2024/03/04 08:18:55;;;;;;;36.40;17.60;;;7.40;99.90;;;;;;5002951;28;20026;-69
2024/03/04 08:21:21;;;;;;;40.45;17.83;;;7.40;99.90;;;;;;5013174;28;20540;-69
2024/03/04 08:23:46;;;;;;;42.08;19.15;;;7.50;99.90;;;;;;5014190;28;20049;-69
2024/03/04 08:26:12;;;;;;;41.42;18.80;;;7.60;99.90;;;;;;5016556;28;20125;-68
2024/03/04 08:28:38;;;;;;;41.88;19.55;;;7.60;99.90;;;;;;5007116;28;20394;-69
2024/03/04 08:31:04;;;;;;;45.47;20.30;;;7.70;99.90;;;;;;4999469;28;20044;-69
2024/03/04 08:33:29;;;;;;;39.58;19.70;;;7.80;99.90;;;;;;5016824;28;20036;-69
2024/03/04 08:35:55;;;;;;;43.65;20.38;;;7.90;99.90;;;;;;5009696;28;20249;-69
2024/03/04 08:38:21;;;;;;;42.90;20.60;;;7.90;99.90;;;;;;5013415;28;20033;-69
2024/03/04 08:40:46;;;;;;;37.88;19.17;;;8.00;99.90;;;;;;5012161;28;20032;-69
2024/03/04 08:43:13;;;;;;;41.80;20.35;;;8.10;99.90;;;;;;5010915;28;20026;-69
2024/03/04 08:45:39;;;;;;;50.60;23.02;;;8.20;99.90;;;;;;5013783;28;20045;-69
2024/03/04 08:48:05;;;;;;;43.47;20.63;;;8.20;99.90;;;;;;5013954;28;20018;-69
2024/03/04 08:50:31;;;;;;;44.70;20.45;;;8.20;99.90;;;;;;5012471;28;20033;-69
2024/03/04 08:52:57;;;;;;;48.25;22.90;;;8.20;99.90;;;;;;5013445;28;20045;-69
2024/03/04 08:55:25;;;;;;;51.28;23.27;;;8.20;99.90;;;;;;5018039;28;20049;-69
2024/03/04 08:57:51;;;;;;;41.58;20.95;;;8.30;99.90;;;;;;5015488;28;20044;-69
2024/03/04 09:00:17;;;;;;;48.38;21.85;;;8.40;99.90;;;;;;5010759;28;20034;-69
2024/03/04 09:02:43;;;;;;;47.38;22.52;;;8.50;99.90;;;;;;5014887;28;20037;-69
2024/03/04 09:05:08;;;;;;;48.95;21.08;;;8.50;99.90;;;;;;5014278;28;20095;-69
2024/03/04 09:07:36;;;;;;;42.92;21.10;;;8.60;99.90;;;;;;5014012;28;20034;-69
2024/03/04 09:10:04;;;;;;;53.75;23.00;;;8.70;99.90;;;;;;5016566;28;20053;-69
2024/03/04 09:12:30;;;;;;;45.13;22.73;;;8.70;99.90;;;;;;5009269;28;20522;-69
2024/03/04 09:14:56;;;;;;;50.88;23.30;;;8.80;99.90;;;;;;5018654;28;20034;-70
2024/03/04 09:17:21;;;;;;;49.90;22.95;;;8.90;99.90;;;;;;5011900;28;20068;-69
2024/03/04 09:19:47;;;;;;;51.97;23.13;;;9.00;99.90;;;;;;5015125;28;20034;-69
2024/03/04 09:22:12;;;;;;;55.08;24.13;;;9.00;99.90;;;;;;5018674;28;20667;-69
2024/03/04 09:24:40;;;;;;;48.97;23.85;;;9.10;99.90;;;;;;5017519;28;20041;-69
2024/03/04 09:27:06;;;;;;;53.00;23.75;;;9.20;99.90;;;;;;5014804;28;20201;-69
2024/03/04 09:29:32;;;;;;;44.13;22.38;;;9.30;99.90;;;;;;5021003;28;20033;-69
2024/03/04 09:31:57;;;;;;;50.50;24.88;;;9.30;99.90;;;;;;5029903;28;20049;-69
2024/03/04 09:34:23;;;;;;;51.45;23.30;;;9.30;99.90;;;;;;5016160;28;20049;-69
2024/03/04 09:36:48;;;;;;;47.50;24.08;;;9.40;99.90;;;;;;5013391;28;20096;-69
2024/03/04 09:39:14;;;;;;;50.60;23.42;;;9.40;99.90;;;;;;5018774;28;20097;-69
2024/03/04 09:41:40;;;;;;;46.17;22.42;;;9.50;99.90;;;;;;5018234;28;20049;-70
2024/03/04 09:44:06;;;;;;;52.10;24.02;;;9.50;99.90;;;;;;5004782;28;20061;-69
2024/03/04 09:46:36;;;;;;;50.35;24.63;;;9.70;99.90;;;;;;5008924;28;20439;-69
2024/03/04 09:49:02;;;;;;;47.97;23.77;;;9.70;99.90;;;;;;5010311;28;20029;-69
2024/03/04 09:51:31;;;;;;;52.83;24.00;;;9.70;99.90;;;;;;5011136;28;20036;-69
2024/03/04 09:53:58;;;;;;;48.25;22.63;;;9.80;99.90;;;;;;5012279;28;20026;-69
2024/03/04 09:56:24;;;;;;;56.83;25.27;;;9.80;99.90;;;;;;5013263;28;20091;-69
2024/03/04 09:58:50;;;;;;;51.17;23.92;;;9.90;99.90;;;;;;5012104;28;20493;-69
2024/03/04 10:01:17;;;;;;;56.20;24.90;;;9.90;99.90;;;;;;5013023;28;20036;-69
2024/03/04 10:03:43;;;;;;;54.70;24.67;;;9.90;99.90;;;;;;5015702;28;20037;-69
2024/03/04 10:06:10;;;;;;;57.40;25.30;;;10.00;99.90;;;;;;5014214;28;20108;-69
2024/03/04 10:08:36;;;;;;;57.50;23.98;;;10.00;99.90;;;;;;5013645;28;20676;-69
2024/03/04 10:11:02;;;;;;;54.92;23.85;;;10.00;99.90;;;;;;5021821;28;20037;-70
2024/03/04 10:13:28;;;;;;;57.00;25.27;;;10.00;99.90;;;;;;5016714;28;20056;-69
2024/03/04 10:15:54;;;;;;;62.67;26.67;;;10.00;99.90;;;;;;5011878;28;20029;-69
2024/03/04 10:18:19;;;;;;;62.80;26.83;;;10.10;99.90;;;;;;5014103;28;20406;-69
2024/03/04 10:20:45;;;;;;;58.95;25.58;;;10.00;99.90;;;;;;5013409;28;20030;-69
2024/03/04 10:23:11;;;;;;;70.78;28.55;;;10.10;99.90;;;;;;5014679;28;20037;-69
2024/03/04 10:25:37;;;;;;;64.80;27.00;;;10.10;99.90;;;;;;5012943;28;20117;-69
2024/03/04 10:28:05;;;;;;;62.88;26.88;;;10.20;99.90;;;;;;5012576;28;20208;-69
2024/03/04 10:30:32;;;;;;;69.85;27.85;;;10.20;99.90;;;;;;5014326;28;20022;-69
2024/03/04 10:33:00;;;;;;;66.78;27.98;;;10.30;99.90;;;;;;5013404;28;20017;-69
2024/03/04 10:35:26;;;;;;;;;;;10.30;99.90;;;;;;5013793;28;20644;-69
2024/03/04 10:37:56;;;;;;;54.03;25.58;;;10.40;99.90;;;;;;5014587;28;19975;-69
2024/03/04 10:40:22;;;;;;;58.50;27.02;;;10.50;99.90;;;;;;5013285;28;20042;-69
2024/03/04 10:42:48;;;;;;;53.17;25.33;;;10.40;99.90;;;;;;5011400;28;20100;-69
2024/03/04 10:45:15;;;;;;;55.47;26.73;;;10.50;99.90;;;;;;5014569;28;20030;-69
2024/03/04 10:47:43;;;;;;;53.85;25.27;;;10.50;99.90;;;;;;5012625;28;20112;-68
2024/03/04 10:50:09;;;;;;;56.88;27.05;;;10.50;99.90;;;;;;5013538;28;20045;-69
2024/03/04 10:52:35;;;;;;;53.80;24.33;;;10.60;99.90;;;;;;5009169;28;20038;-69
2024/03/04 10:55:01;;;;;;;52.15;25.23;;;10.70;99.90;;;;;;5006761;28;20053;-69
2024/03/04 10:57:31;;;;;;;60.97;26.73;;;10.70;99.90;;;;;;5011464;28;21098;-69
2024/03/04 11:00:17;;;;;;;59.65;27.27;;;10.80;99.90;;;;;;5012940;28;20112;-69
2024/03/04 11:03:04;;;;;;;54.13;24.50;;;10.80;99.90;;;;;;5010749;28;20045;-69
2024/03/04 11:05:32;;;;;;;51.10;24.77;;;10.70;99.90;;;;;;5011083;28;20095;-69
2024/03/04 11:08:16;;;;;;;56.28;25.75;;;10.60;99.90;;;;;;5014965;28;20329;-69
2024/03/04 11:10:51;;;;;;;57.90;26.05;;;10.70;99.90;;;;;;5013371;28;20045;-69
2024/03/04 11:13:42;;;;;;;65.28;28.70;;;10.70;99.90;;;;;;5010065;28;20034;-69
2024/03/04 11:16:14;;;;;;;61.20;28.08;;;10.70;99.90;;;;;;5015547;28;20025;-69
2024/03/04 11:19:11;;;;;;;66.07;30.52;;;10.80;99.90;;;;;;5011080;28;20065;-69
2024/03/04 11:21:39;;;;;;;69.32;31.60;;;10.80;99.90;;;;;;5012168;28;20096;-70
2024/03/04 11:24:06;;;;;;;74.13;33.22;;;10.80;99.90;;;;;;5011047;28;20033;-70
2024/03/04 11:26:33;;;;;;;81.50;36.72;;;10.90;99.90;;;;;;5014978;28;20037;-70
2024/03/04 11:29:00;;;;;;;78.75;35.15;;;11.00;99.90;;;;;;5015355;28;20140;-69
2024/03/04 11:31:27;;;;;;;76.78;34.92;;;11.10;99.90;;;;;;5017020;28;20038;-70
2024/03/04 11:34:05;;;;;;;85.32;35.28;;;11.20;99.90;;;;;;5011084;28;20049;-69
2024/03/04 11:36:32;;;;;;;79.38;34.90;;;11.20;99.90;;;;;;5010721;28;20026;-69
2024/03/04 11:38:58;;;;;;;84.20;36.42;;;11.20;99.90;;;;;;5015249;28;20036;-70
2024/03/04 11:41:48;;;;;;;82.47;37.35;;;11.20;99.90;;;;;;5015541;28;20042;-70
2024/03/04 11:44:20;;;;;;;80.43;36.20;;;11.40;99.90;;;;;;5010896;28;20076;-70
2024/03/04 11:46:46;;;;;;;86.93;38.75;;;11.50;99.90;;;;;;5008106;28;20034;-70
2024/03/04 11:49:44;;;;;;;90.30;41.95;;;11.50;99.90;;;;;;5016786;28;20049;-70
2024/03/04 11:52:14;;;;;;;95.25;39.72;;;11.60;99.90;;;;;;5012036;28;20036;-70
2024/03/04 11:54:45;;;;;;;87.55;38.55;;;11.70;99.90;;;;;;5009296;28;20645;-70
2024/03/04 11:57:11;;;;;;;77.35;34.28;;;11.70;99.90;;;;;;5017288;28;20042;-70
2024/03/04 11:59:40;;;;;;;85.05;38.58;;;11.70;99.90;;;;;;5009615;28;20450;-70
2024/03/04 12:02:09;;;;;;;83.10;36.72;;;11.70;99.90;;;;;;5009685;28;20817;-70
2024/03/04 12:04:35;;;;;;;72.90;34.58;;;11.70;99.90;;;;;;5012587;28;20053;-70
2024/03/04 12:07:03;;;;;;;80.95;35.78;;;11.70;99.90;;;;;;5011692;28;20030;-70
2024/03/04 12:09:29;;;;;;;78.57;34.75;;;11.80;99.90;;;;;;5011433;28;20029;-70
2024/03/04 12:11:55;;;;;;;70.97;33.17;;;11.80;99.90;;;;;;5012545;28;20018;-70
2024/03/04 12:14:21;;;;;;;67.32;33.05;;;11.90;99.90;;;;;;5011352;28;20755;-69
2024/03/04 12:16:47;;;;;;;60.28;30.90;;;11.80;99.90;;;;;;5010121;28;20117;-69
2024/03/04 12:19:12;;;;;;;63.38;29.98;;;11.80;99.90;;;;;;5009799;28;20125;-69
2024/03/04 12:21:38;;;;;;;59.42;29.65;;;11.80;99.90;;;;;;5009735;28;20063;-69
2024/03/04 12:24:04;;;;;;;66.25;29.73;;;11.80;99.90;;;;;;5010205;28;20034;-69
2024/03/04 12:26:30;;;;;;;62.08;30.05;;;11.90;99.90;;;;;;5013049;28;20183;-69
2024/03/04 12:29:07;;;;;;;58.58;28.00;;;11.90;99.90;;;;;;5011627;28;20041;-69
2024/03/04 12:31:33;;;;;;;61.90;29.73;;;11.90;99.90;;;;;;5010132;28;20491;-70
2024/03/04 12:34:02;;;;;;;66.40;29.23;;;11.90;99.90;;;;;;5006640;28;20042;-69